sensor_id;sensor_type;location;lat;lon;timestamp;pressure;altitude;pressure_sealevel;temperature;humidity
78411;BME280;67706;51.074;-1.796;2023-03-13T00:01:00;99196.31;;;11.22;88.04
78411;BME280;67706;51.074;-1.796;2023-03-13T00:03:27;99185.19;;;11.28;87.80
78411;BME280;67706;51.074;-1.796;2023-03-13T00:05:55;99203.31;;;11.29;87.94
78411;BME280;67706;51.074;-1.796;2023-03-13T00:08:23;99188.53;;;11.30;87.92
78411;BME280;67706;51.074;-1.796;2023-03-13T00:10:50;99168.38;;;11.25;88.25
78411;BME280;67706;51.074;-1.796;2023-03-13T00:13:17;99177.69;;;11.24;88.33
78411;BME280;67706;51.074;-1.796;2023-03-13T00:15:44;99180.19;;;11.25;88.26
78411;BME280;67706;51.074;-1.796;2023-03-13T00:18:11;99168.84;;;11.22;88.85
78411;BME280;67706;51.074;-1.796;2023-03-13T00:20:37;99153.22;;;11.22;88.64
78411;BME280;67706;51.074;-1.796;2023-03-13T00:23:04;99146.06;;;11.21;88.97
78411;BME280;67706;51.074;-1.796;2023-03-13T00:25:32;99144.63;;;11.18;88.92
78411;BME280;67706;51.074;-1.796;2023-03-13T00:27:59;99128.75;;;11.20;89.02
78411;BME280;67706;51.074;-1.796;2023-03-13T00:30:25;99146.78;;;11.16;89.10
78411;BME280;67706;51.074;-1.796;2023-03-13T00:32:52;99160.63;;;11.22;88.87
78411;BME280;67706;51.074;-1.796;2023-03-13T00:35:19;99179.59;;;11.23;88.86
78411;BME280;67706;51.074;-1.796;2023-03-13T00:37:45;99162.53;;;11.21;88.98
78411;BME280;67706;51.074;-1.796;2023-03-13T00:40:12;99177.09;;;11.22;89.12
78411;BME280;67706;51.074;-1.796;2023-03-13T00:42:40;99165.53;;;11.19;89.10
78411;BME280;67706;51.074;-1.796;2023-03-13T00:45:26;99148.47;;;11.17;89.15
78411;BME280;67706;51.074;-1.796;2023-03-13T00:47:52;99161.34;;;11.17;89.25
78411;BME280;67706;51.074;-1.796;2023-03-13T00:50:19;99160.03;;;11.19;89.10
78411;BME280;67706;51.074;-1.796;2023-03-13T00:52:46;99164.94;;;11.17;89.06
78411;BME280;67706;51.074;-1.796;2023-03-13T00:55:12;99145.38;;;11.14;89.48
78411;BME280;67706;51.074;-1.796;2023-03-13T00:57:40;99137.75;;;11.16;89.57
78411;BME280;67706;51.074;-1.796;2023-03-13T01:00:08;99124.25;;;11.14;89.56
78411;BME280;67706;51.074;-1.796;2023-03-13T01:02:40;99124.25;;;11.14;89.65
78411;BME280;67706;51.074;-1.796;2023-03-13T01:05:08;99128.66;;;11.15;89.33
78411;BME280;67706;51.074;-1.796;2023-03-13T01:07:35;99121.75;;;11.13;89.57
78411;BME280;67706;51.074;-1.796;2023-03-13T01:10:01;99127.34;;;11.18;89.26
78411;BME280;67706;51.074;-1.796;2023-03-13T01:12:28;99125.91;;;11.15;89.60
78411;BME280;67706;51.074;-1.796;2023-03-13T01:14:56;99114.09;;;11.15;89.29
78411;BME280;67706;51.074;-1.796;2023-03-13T01:17:23;99106.47;;;11.17;89.31
78411;BME280;67706;51.074;-1.796;2023-03-13T01:19:50;99096.56;;;11.16;89.53
78411;BME280;67706;51.074;-1.796;2023-03-13T01:22:16;99077.59;;;11.14;89.29
78411;BME280;67706;51.074;-1.796;2023-03-13T01:24:43;99095.41;;;11.12;89.39
78411;BME280;67706;51.074;-1.796;2023-03-13T01:27:10;99092.72;;;11.17;89.28
78411;BME280;67706;51.074;-1.796;2023-03-13T01:29:37;99088.56;;;11.14;89.45
78411;BME280;67706;51.074;-1.796;2023-03-13T01:32:05;99078.16;;;11.16;89.27
78411;BME280;67706;51.074;-1.796;2023-03-13T01:34:32;99068.19;;;11.10;89.21
78411;BME280;67706;51.074;-1.796;2023-03-13T01:36:59;99065.44;;;11.10;89.53
78411;BME280;67706;51.074;-1.796;2023-03-13T01:39:26;99073.28;;;11.18;89.09
78411;BME280;67706;51.074;-1.796;2023-03-13T01:41:52;99063.38;;;11.17;89.17
78411;BME280;67706;51.074;-1.796;2023-03-13T01:44:23;99066.03;;;11.12;89.04
78411;BME280;67706;51.074;-1.796;2023-03-13T01:46:49;99062.28;;;11.18;88.97
78411;BME280;67706;51.074;-1.796;2023-03-13T01:49:20;99054.06;;;11.18;89.49
78411;BME280;67706;51.074;-1.796;2023-03-13T01:51:49;99048.56;;;11.18;89.08
78411;BME280;67706;51.074;-1.796;2023-03-13T01:54:22;99044.28;;;11.23;89.00
78411;BME280;67706;51.074;-1.796;2023-03-13T01:56:52;99034.13;;;11.23;88.97
78411;BME280;67706;51.074;-1.796;2023-03-13T01:59:24;99025.66;;;11.25;88.93
78411;BME280;67706;51.074;-1.796;2023-03-13T02:01:53;99038.28;;;11.26;88.97
78411;BME280;67706;51.074;-1.796;2023-03-13T02:04:25;99027.31;;;11.26;88.72
78411;BME280;67706;51.074;-1.796;2023-03-13T02:06:55;99023.13;;;11.23;88.84
78411;BME280;67706;51.074;-1.796;2023-03-13T02:09:25;99028.63;;;11.23;89.07
78411;BME280;67706;51.074;-1.796;2023-03-13T02:11:59;99014.56;;;11.19;88.62
78411;BME280;67706;51.074;-1.796;2023-03-13T02:14:29;99023.06;;;11.18;89.23
78411;BME280;67706;51.074;-1.796;2023-03-13T02:16:59;99016.84;;;11.23;88.55
78411;BME280;67706;51.074;-1.796;2023-03-13T02:19:32;99013.00;;;11.24;88.44
78411;BME280;67706;51.074;-1.796;2023-03-13T02:22:08;98995.34;;;11.19;88.51
78411;BME280;67706;51.074;-1.796;2023-03-13T02:24:46;99011.81;;;11.19;89.06
78411;BME280;67706;51.074;-1.796;2023-03-13T02:27:18;98999.28;;;11.24;88.78
78411;BME280;67706;51.074;-1.796;2023-03-13T02:29:44;98995.84;;;11.16;88.95
78411;BME280;67706;51.074;-1.796;2023-03-13T02:32:11;98990.88;;;11.13;89.08
78411;BME280;67706;51.074;-1.796;2023-03-13T02:34:39;98988.69;;;11.15;89.00
78411;BME280;67706;51.074;-1.796;2023-03-13T02:37:07;98999.16;;;11.18;88.82
78411;BME280;67706;51.074;-1.796;2023-03-13T02:39:39;98989.41;;;11.23;88.60
78411;BME280;67706;51.074;-1.796;2023-03-13T02:42:07;98985.13;;;11.15;89.16
78411;BME280;67706;51.074;-1.796;2023-03-13T02:44:38;98973.66;;;11.18;89.20
78411;BME280;67706;51.074;-1.796;2023-03-13T02:47:05;98980.91;;;11.24;89.03
78411;BME280;67706;51.074;-1.796;2023-03-13T02:49:34;98972.09;;;11.22;88.76
78411;BME280;67706;51.074;-1.796;2023-03-13T02:52:07;98969.19;;;11.29;88.28
78411;BME280;67706;51.074;-1.796;2023-03-13T02:54:38;98966.09;;;11.25;88.70
78411;BME280;67706;51.074;-1.796;2023-03-13T02:57:06;98956.53;;;11.28;88.88
78411;BME280;67706;51.074;-1.796;2023-03-13T02:59:33;98966.81;;;11.20;89.11
78411;BME280;67706;51.074;-1.796;2023-03-13T03:02:01;98958.09;;;11.24;88.65
78411;BME280;67706;51.074;-1.796;2023-03-13T03:04:28;98953.47;;;11.24;88.46
78411;BME280;67706;51.074;-1.796;2023-03-13T03:06:55;98957.63;;;11.27;87.55
78411;BME280;67706;51.074;-1.796;2023-03-13T03:09:22;98954.63;;;11.28;87.58
78411;BME280;67706;51.074;-1.796;2023-03-13T03:11:49;98949.88;;;11.24;87.55
78411;BME280;67706;51.074;-1.796;2023-03-13T03:14:16;98942.31;;;11.31;86.31
78411;BME280;67706;51.074;-1.796;2023-03-13T03:16:43;98943.97;;;11.32;86.42
78411;BME280;67706;51.074;-1.796;2023-03-13T03:19:14;98929.41;;;11.31;86.05
78411;BME280;67706;51.074;-1.796;2023-03-13T03:21:41;98922.38;;;11.35;85.37
78411;BME280;67706;51.074;-1.796;2023-03-13T03:24:08;98931.19;;;11.37;85.49
78411;BME280;67706;51.074;-1.796;2023-03-13T03:26:35;98926.75;;;11.36;85.89
78411;BME280;67706;51.074;-1.796;2023-03-13T03:29:02;98902.53;;;11.33;85.87
78411;BME280;67706;51.074;-1.796;2023-03-13T03:31:29;98917.44;;;11.37;85.97
78411;BME280;67706;51.074;-1.796;2023-03-13T03:33:56;98910.72;;;11.28;86.28
78411;BME280;67706;51.074;-1.796;2023-03-13T03:36:24;98911.59;;;11.34;85.79
78411;BME280;67706;51.074;-1.796;2023-03-13T03:38:51;98917.84;;;11.29;86.50
78411;BME280;67706;51.074;-1.796;2023-03-13T03:41:19;98895.56;;;11.26;86.80
78411;BME280;67706;51.074;-1.796;2023-03-13T03:43:46;98903.22;;;11.24;86.72
78411;BME280;67706;51.074;-1.796;2023-03-13T03:46:14;98888.31;;;11.19;87.19
78411;BME280;67706;51.074;-1.796;2023-03-13T03:48:41;98880.34;;;11.18;87.43
78411;BME280;67706;51.074;-1.796;2023-03-13T03:51:08;98885.59;;;11.19;87.50
78411;BME280;67706;51.074;-1.796;2023-03-13T03:53:36;98884.41;;;11.15;87.78
78411;BME280;67706;51.074;-1.796;2023-03-13T03:56:03;98879.78;;;11.16;87.67
78411;BME280;67706;51.074;-1.796;2023-03-13T03:58:30;98864.63;;;11.13;87.78
78411;BME280;67706;51.074;-1.796;2023-03-13T04:00:57;98870.19;;;11.18;87.56
78411;BME280;67706;51.074;-1.796;2023-03-13T04:03:25;98847.47;;;11.23;87.80
78411;BME280;67706;51.074;-1.796;2023-03-13T04:05:51;98866.22;;;11.26;87.76
78411;BME280;67706;51.074;-1.796;2023-03-13T04:08:18;98865.88;;;11.23;87.79
78411;BME280;67706;51.074;-1.796;2023-03-13T04:10:50;98851.31;;;11.22;87.61
78411;BME280;67706;51.074;-1.796;2023-03-13T04:13:17;98867.53;;;11.24;87.77
78411;BME280;67706;51.074;-1.796;2023-03-13T04:15:44;98870.38;;;11.29;86.34
78411;BME280;67706;51.074;-1.796;2023-03-13T04:18:11;98849.06;;;11.36;85.26
78411;BME280;67706;51.074;-1.796;2023-03-13T04:20:37;98866.28;;;11.31;85.59
78411;BME280;67706;51.074;-1.796;2023-03-13T04:23:04;98863.28;;;11.33;85.33
78411;BME280;67706;51.074;-1.796;2023-03-13T04:25:31;98846.16;;;11.26;84.96
78411;BME280;67706;51.074;-1.796;2023-03-13T04:27:59;98858.56;;;11.28;84.74
78411;BME280;67706;51.074;-1.796;2023-03-13T04:30:25;98855.56;;;11.30;84.37
78411;BME280;67706;51.074;-1.796;2023-03-13T04:32:52;98858.47;;;11.23;84.85
78411;BME280;67706;51.074;-1.796;2023-03-13T04:35:19;98859.38;;;11.29;84.36
78411;BME280;67706;51.074;-1.796;2023-03-13T04:37:46;98853.56;;;11.25;84.28
78411;BME280;67706;51.074;-1.796;2023-03-13T04:40:13;98841.66;;;11.19;84.96
78411;BME280;67706;51.074;-1.796;2023-03-13T04:42:40;98842.25;;;11.22;84.10
78411;BME280;67706;51.074;-1.796;2023-03-13T04:45:10;98848.00;;;11.20;83.92
78411;BME280;67706;51.074;-1.796;2023-03-13T04:47:37;98852.97;;;11.23;84.08
78411;BME280;67706;51.074;-1.796;2023-03-13T04:50:04;98847.47;;;11.23;84.16
78411;BME280;67706;51.074;-1.796;2023-03-13T04:52:31;98850.00;;;11.25;83.74
78411;BME280;67706;51.074;-1.796;2023-03-13T04:54:58;98840.34;;;11.22;83.58
78411;BME280;67706;51.074;-1.796;2023-03-13T04:57:24;98848.81;;;11.20;83.54
78411;BME280;67706;51.074;-1.796;2023-03-13T04:59:51;98846.31;;;11.19;82.65
78411;BME280;67706;51.074;-1.796;2023-03-13T05:02:19;98853.97;;;11.17;82.91
78411;BME280;67706;51.074;-1.796;2023-03-13T05:04:46;98859.47;;;11.17;82.35
78411;BME280;67706;51.074;-1.796;2023-03-13T05:07:12;98841.25;;;11.11;83.05
78411;BME280;67706;51.074;-1.796;2023-03-13T05:09:39;98828.84;;;11.08;83.02
78411;BME280;67706;51.074;-1.796;2023-03-13T05:12:06;98841.50;;;11.09;82.33
78411;BME280;67706;51.074;-1.796;2023-03-13T05:14:33;98840.19;;;11.12;82.21
78411;BME280;67706;51.074;-1.796;2023-03-13T05:17:00;98830.28;;;11.11;82.27
78411;BME280;67706;51.074;-1.796;2023-03-13T05:19:28;98826.47;;;11.12;81.46
78411;BME280;67706;51.074;-1.796;2023-03-13T05:21:55;98822.38;;;11.14;81.50
78411;BME280;67706;51.074;-1.796;2023-03-13T05:24:21;98815.22;;;11.13;81.58
78411;BME280;67706;51.074;-1.796;2023-03-13T05:26:48;98824.47;;;11.07;81.71
78411;BME280;67706;51.074;-1.796;2023-03-13T05:29:15;98841.16;;;11.06;81.84
78411;BME280;67706;51.074;-1.796;2023-03-13T05:31:41;98836.03;;;11.09;81.33
78411;BME280;67706;51.074;-1.796;2023-03-13T05:34:08;98821.22;;;11.10;80.92
78411;BME280;67706;51.074;-1.796;2023-03-13T05:36:36;98812.91;;;11.05;81.23
78411;BME280;67706;51.074;-1.796;2023-03-13T05:39:03;98810.75;;;11.07;80.95
78411;BME280;67706;51.074;-1.796;2023-03-13T05:41:29;98814.06;;;11.09;80.82
78411;BME280;67706;51.074;-1.796;2023-03-13T05:43:56;98820.03;;;11.06;81.18
78411;BME280;67706;51.074;-1.796;2023-03-13T05:46:23;98810.22;;;11.10;80.72
78411;BME280;67706;51.074;-1.796;2023-03-13T05:48:49;98803.94;;;11.10;80.79
78411;BME280;67706;51.074;-1.796;2023-03-13T05:51:17;98780.56;;;11.07;81.35
78411;BME280;67706;51.074;-1.796;2023-03-13T05:53:45;98797.88;;;11.08;81.29
78411;BME280;67706;51.074;-1.796;2023-03-13T05:56:11;98800.34;;;11.09;81.31
78411;BME280;67706;51.074;-1.796;2023-03-13T05:58:38;98819.56;;;11.09;80.91
78411;BME280;67706;51.074;-1.796;2023-03-13T06:01:06;98819.41;;;11.16;80.27
78411;BME280;67706;51.074;-1.796;2023-03-13T06:03:33;98810.16;;;11.22;79.02
78411;BME280;67706;51.074;-1.796;2023-03-13T06:06:00;98798.81;;;11.18;80.03
78411;BME280;67706;51.074;-1.796;2023-03-13T06:08:27;98796.09;;;11.18;79.07
78411;BME280;67706;51.074;-1.796;2023-03-13T06:10:57;98797.19;;;11.17;78.68
78411;BME280;67706;51.074;-1.796;2023-03-13T06:13:24;98789.97;;;11.11;79.12
78411;BME280;67706;51.074;-1.796;2023-03-13T06:15:51;98807.25;;;11.12;79.18
78411;BME280;67706;51.074;-1.796;2023-03-13T06:18:18;98781.97;;;11.10;78.97
78411;BME280;67706;51.074;-1.796;2023-03-13T06:20:45;98796.19;;;11.07;79.50
78411;BME280;67706;51.074;-1.796;2023-03-13T06:23:12;98790.38;;;11.03;79.23
78411;BME280;67706;51.074;-1.796;2023-03-13T06:25:38;98782.06;;;10.98;79.58
78411;BME280;67706;51.074;-1.796;2023-03-13T06:28:06;98794.44;;;11.01;79.87
78411;BME280;67706;51.074;-1.796;2023-03-13T06:30:33;98791.97;;;10.99;80.05
78411;BME280;67706;51.074;-1.796;2023-03-13T06:33:00;98794.13;;;10.97;79.83
78411;BME280;67706;51.074;-1.796;2023-03-13T06:35:27;98795.78;;;10.98;79.96
78411;BME280;67706;51.074;-1.796;2023-03-13T06:37:53;98799.09;;;11.00;79.63
78411;BME280;67706;51.074;-1.796;2023-03-13T06:40:20;98783.81;;;11.04;79.53
78411;BME280;67706;51.074;-1.796;2023-03-13T06:42:47;98766.28;;;11.05;79.17
78411;BME280;67706;51.074;-1.796;2023-03-13T06:45:15;98790.78;;;11.12;78.17
78411;BME280;67706;51.074;-1.796;2023-03-13T06:47:41;98782.31;;;11.13;78.00
78411;BME280;67706;51.074;-1.796;2023-03-13T06:50:09;98776.28;;;11.16;77.03
78411;BME280;67706;51.074;-1.796;2023-03-13T06:52:36;98814.13;;;11.14;77.28
78411;BME280;67706;51.074;-1.796;2023-03-13T06:55:03;98797.59;;;11.09;77.72
78411;BME280;67706;51.074;-1.796;2023-03-13T06:57:30;98800.94;;;11.11;77.76
78411;BME280;67706;51.074;-1.796;2023-03-13T06:59:57;98792.97;;;11.10;78.02
78411;BME280;67706;51.074;-1.796;2023-03-13T07:02:25;98774.56;;;11.10;77.75
78411;BME280;67706;51.074;-1.796;2023-03-13T07:04:52;98785.47;;;11.05;78.55
78411;BME280;67706;51.074;-1.796;2023-03-13T07:07:18;98799.78;;;11.07;78.07
78411;BME280;67706;51.074;-1.796;2023-03-13T07:09:45;98789.38;;;11.09;78.17
78411;BME280;67706;51.074;-1.796;2023-03-13T07:12:12;98777.31;;;11.10;77.63
78411;BME280;67706;51.074;-1.796;2023-03-13T07:14:38;98771.25;;;11.08;78.15
78411;BME280;67706;51.074;-1.796;2023-03-13T07:17:05;98782.22;;;11.08;78.35
78411;BME280;67706;51.074;-1.796;2023-03-13T07:19:33;98777.81;;;11.07;78.42
78411;BME280;67706;51.074;-1.796;2023-03-13T07:22:00;98806.59;;;11.05;78.78
78411;BME280;67706;51.074;-1.796;2023-03-13T07:24:26;98784.63;;;11.05;78.20
78411;BME280;67706;51.074;-1.796;2023-03-13T07:26:53;98771.41;;;11.02;78.40
78411;BME280;67706;51.074;-1.796;2023-03-13T07:29:20;98775.31;;;11.06;78.01
78411;BME280;67706;51.074;-1.796;2023-03-13T07:31:47;98755.28;;;11.05;78.03
78411;BME280;67706;51.074;-1.796;2023-03-13T07:34:13;98764.34;;;11.06;78.05
78411;BME280;67706;51.074;-1.796;2023-03-13T07:36:41;98766.84;;;11.07;77.28
78411;BME280;67706;51.074;-1.796;2023-03-13T07:39:08;98735.00;;;11.06;77.39
78411;BME280;67706;51.074;-1.796;2023-03-13T07:41:35;98735.06;;;11.11;77.28
78411;BME280;67706;51.074;-1.796;2023-03-13T07:44:01;98731.22;;;11.12;76.84
78411;BME280;67706;51.074;-1.796;2023-03-13T07:46:28;98753.75;;;11.14;77.00
78411;BME280;67706;51.074;-1.796;2023-03-13T07:48:55;98740.88;;;11.15;76.72
78411;BME280;67706;51.074;-1.796;2023-03-13T07:51:23;98748.72;;;11.06;78.26
78411;BME280;67706;51.074;-1.796;2023-03-13T07:53:51;98743.75;;;11.03;78.00
78411;BME280;67706;51.074;-1.796;2023-03-13T07:56:20;98744.81;;;11.02;78.35
78411;BME280;67706;51.074;-1.796;2023-03-13T07:58:48;98743.91;;;10.97;78.15
78411;BME280;67706;51.074;-1.796;2023-03-13T08:01:16;98742.25;;;10.96;78.95
78411;BME280;67706;51.074;-1.796;2023-03-13T08:03:44;98735.44;;;10.98;78.15
78411;BME280;67706;51.074;-1.796;2023-03-13T08:06:14;98734.59;;;10.98;78.09
78411;BME280;67706;51.074;-1.796;2023-03-13T08:08:41;98748.06;;;10.99;77.77
78411;BME280;67706;51.074;-1.796;2023-03-13T08:11:11;98723.88;;;10.96;78.15
78411;BME280;67706;51.074;-1.796;2023-03-13T08:13:39;98745.97;;;11.06;77.62
78411;BME280;67706;51.074;-1.796;2023-03-13T08:16:07;98719.63;;;11.05;78.04
78411;BME280;67706;51.074;-1.796;2023-03-13T08:18:35;98731.66;;;11.04;77.81
78411;BME280;67706;51.074;-1.796;2023-03-13T08:21:03;98729.50;;;11.06;77.47
78411;BME280;67706;51.074;-1.796;2023-03-13T08:23:30;98719.09;;;11.08;77.69
78411;BME280;67706;51.074;-1.796;2023-03-13T08:26:01;98718.03;;;11.09;77.37
78411;BME280;67706;51.074;-1.796;2023-03-13T08:28:29;98723.53;;;11.09;78.10
78411;BME280;67706;51.074;-1.796;2023-03-13T08:30:56;98726.28;;;11.09;78.44
78411;BME280;67706;51.074;-1.796;2023-03-13T08:33:23;98718.28;;;11.08;78.37
78411;BME280;67706;51.074;-1.796;2023-03-13T08:35:49;98719.06;;;11.03;79.44
78411;BME280;67706;51.074;-1.796;2023-03-13T08:38:16;98726.28;;;11.09;78.75
78411;BME280;67706;51.074;-1.796;2023-03-13T08:40:43;98724.59;;;11.08;77.88
78411;BME280;67706;51.074;-1.796;2023-03-13T08:43:09;98717.50;;;11.12;78.38
78411;BME280;67706;51.074;-1.796;2023-03-13T08:45:37;98716.44;;;11.13;78.07
78411;BME280;67706;51.074;-1.796;2023-03-13T08:48:04;98708.03;;;11.20;78.08
78411;BME280;67706;51.074;-1.796;2023-03-13T08:50:31;98711.41;;;11.27;76.42
78411;BME280;67706;51.074;-1.796;2023-03-13T08:52:57;98730.69;;;11.32;76.56
78411;BME280;67706;51.074;-1.796;2023-03-13T08:55:24;98732.69;;;11.37;76.34
78411;BME280;67706;51.074;-1.796;2023-03-13T08:57:51;98720.41;;;11.44;75.80
78411;BME280;67706;51.074;-1.796;2023-03-13T09:00:18;98726.19;;;11.43;75.73
78411;BME280;67706;51.074;-1.796;2023-03-13T09:02:46;98732.63;;;11.53;75.93
78411;BME280;67706;51.074;-1.796;2023-03-13T09:05:13;98719.09;;;11.47;75.62
78411;BME280;67706;51.074;-1.796;2023-03-13T09:07:39;98710.84;;;11.47;75.57
78411;BME280;67706;51.074;-1.796;2023-03-13T09:10:07;98725.16;;;11.49;75.60
78411;BME280;67706;51.074;-1.796;2023-03-13T09:12:34;98715.84;;;11.50;75.13
78411;BME280;67706;51.074;-1.796;2023-03-13T09:15:01;98739.19;;;11.52;75.80
78411;BME280;67706;51.074;-1.796;2023-03-13T09:17:27;98721.34;;;11.50;76.54
78411;BME280;67706;51.074;-1.796;2023-03-13T09:19:55;98722.84;;;11.41;76.88
78411;BME280;67706;51.074;-1.796;2023-03-13T09:22:22;98727.19;;;11.37;76.85
78411;BME280;67706;51.074;-1.796;2023-03-13T09:24:49;98711.63;;;11.42;76.53
78411;BME280;67706;51.074;-1.796;2023-03-13T09:27:15;98732.25;;;11.45;76.49
78411;BME280;67706;51.074;-1.796;2023-03-13T09:29:42;98731.78;;;11.53;75.59
78411;BME280;67706;51.074;-1.796;2023-03-13T09:32:09;98726.81;;;11.50;76.16
78411;BME280;67706;51.074;-1.796;2023-03-13T09:34:36;98720.88;;;11.58;75.71
78411;BME280;67706;51.074;-1.796;2023-03-13T09:37:04;98736.25;;;11.59;75.53
78411;BME280;67706;51.074;-1.796;2023-03-13T09:39:30;98740.41;;;11.61;75.25
78411;BME280;67706;51.074;-1.796;2023-03-13T09:42:02;98765.25;;;11.66;75.37
78411;BME280;67706;51.074;-1.796;2023-03-13T09:44:37;98741.34;;;11.67;74.90
78411;BME280;67706;51.074;-1.796;2023-03-13T09:47:10;98735.41;;;11.75;74.77
78411;BME280;67706;51.074;-1.796;2023-03-13T09:49:40;98719.03;;;11.85;73.06
78411;BME280;67706;51.074;-1.796;2023-03-13T09:52:15;98754.50;;;11.86;74.21
78411;BME280;67706;51.074;-1.796;2023-03-13T09:54:46;98758.66;;;11.89;73.64
78411;BME280;67706;51.074;-1.796;2023-03-13T09:57:19;98759.03;;;11.98;73.30
78411;BME280;67706;51.074;-1.796;2023-03-13T09:59:51;98760.09;;;11.96;72.85
78411;BME280;67706;51.074;-1.796;2023-03-13T10:02:29;98757.72;;;12.05;72.94
78411;BME280;67706;51.074;-1.796;2023-03-13T10:05:02;98747.84;;;12.04;73.14
78411;BME280;67706;51.074;-1.796;2023-03-13T10:07:32;98769.00;;;12.04;72.56
78411;BME280;67706;51.074;-1.796;2023-03-13T10:10:00;98754.41;;;12.03;73.03
78411;BME280;67706;51.074;-1.796;2023-03-13T10:12:28;98756.75;;;12.16;72.36
78411;BME280;67706;51.074;-1.796;2023-03-13T10:15:15;98711.69;;;12.17;72.06
78411;BME280;67706;51.074;-1.796;2023-03-13T10:17:43;98762.19;;;12.11;71.10
78411;BME280;67706;51.074;-1.796;2023-03-13T10:20:17;98765.28;;;12.15;72.54
78411;BME280;67706;51.074;-1.796;2023-03-13T10:22:49;98752.31;;;12.10;72.24
78411;BME280;67706;51.074;-1.796;2023-03-13T10:25:27;98765.97;;;12.05;73.13
78411;BME280;67706;51.074;-1.796;2023-03-13T10:27:55;98755.25;;;12.04;72.84
78411;BME280;67706;51.074;-1.796;2023-03-13T10:30:24;98775.91;;;12.06;72.69
78411;BME280;67706;51.074;-1.796;2023-03-13T10:32:53;98769.00;;;12.04;72.93
78411;BME280;67706;51.074;-1.796;2023-03-13T10:35:22;98751.63;;;11.98;73.78
78411;BME280;67706;51.074;-1.796;2023-03-13T10:38:00;98757.13;;;11.98;74.14
78411;BME280;67706;51.074;-1.796;2023-03-13T10:40:28;98754.81;;;11.90;75.05
78411;BME280;67706;51.074;-1.796;2023-03-13T10:43:01;98752.00;;;11.85;74.48
78411;BME280;67706;51.074;-1.796;2023-03-13T10:45:31;98765.94;;;11.78;74.00
78411;BME280;67706;51.074;-1.796;2023-03-13T10:48:00;98752.47;;;11.77;73.64
78411;BME280;67706;51.074;-1.796;2023-03-13T10:50:32;98749.66;;;11.93;73.87
78411;BME280;67706;51.074;-1.796;2023-03-13T10:53:20;98753.78;;;11.96;74.17
78411;BME280;67706;51.074;-1.796;2023-03-13T10:55:47;98766.69;;;11.95;73.58
78411;BME280;67706;51.074;-1.796;2023-03-13T10:58:18;98747.88;;;12.09;73.33
78411;BME280;67706;51.074;-1.796;2023-03-13T11:00:46;98721.03;;;12.16;73.25
78411;BME280;67706;51.074;-1.796;2023-03-13T11:03:15;98735.38;;;12.23;72.67
78411;BME280;67706;51.074;-1.796;2023-03-13T11:05:45;98752.03;;;12.38;71.93
78411;BME280;67706;51.074;-1.796;2023-03-13T11:08:22;98714.44;;;12.49;72.21
78411;BME280;67706;51.074;-1.796;2023-03-13T11:10:56;98708.13;;;12.48;71.06
78411;BME280;67706;51.074;-1.796;2023-03-13T11:13:38;98707.47;;;12.36;70.72
78411;BME280;67706;51.074;-1.796;2023-03-13T11:16:18;98718.91;;;12.55;71.17
78411;BME280;67706;51.074;-1.796;2023-03-13T11:19:20;98721.91;;;12.53;72.10
78411;BME280;67706;51.074;-1.796;2023-03-13T11:21:55;98736.78;;;12.52;71.50
78411;BME280;67706;51.074;-1.796;2023-03-13T11:24:33;98734.84;;;12.53;71.58
78411;BME280;67706;51.074;-1.796;2023-03-13T11:27:13;98716.41;;;12.53;71.48
78411;BME280;67706;51.074;-1.796;2023-03-13T11:29:50;98713.03;;;12.41;71.89
78411;BME280;67706;51.074;-1.796;2023-03-13T11:32:25;98722.69;;;12.44;71.81
78411;BME280;67706;51.074;-1.796;2023-03-13T11:34:58;98707.22;;;12.38;71.37
78411;BME280;67706;51.074;-1.796;2023-03-13T11:37:28;98713.97;;;12.25;70.68
78411;BME280;67706;51.074;-1.796;2023-03-13T11:40:02;98713.97;;;12.25;72.80
78411;BME280;67706;51.074;-1.796;2023-03-13T11:42:54;98721.59;;;12.18;73.01
78411;BME280;67706;51.074;-1.796;2023-03-13T11:45:43;98723.22;;;12.14;74.28
78411;BME280;67706;51.074;-1.796;2023-03-13T11:48:20;98706.38;;;12.11;74.30
78411;BME280;67706;51.074;-1.796;2023-03-13T11:50:54;98708.81;;;12.02;74.03
78411;BME280;67706;51.074;-1.796;2023-03-13T11:53:36;98694.63;;;12.15;73.63
78411;BME280;67706;51.074;-1.796;2023-03-13T11:56:14;98699.63;;;12.23;73.75
78411;BME280;67706;51.074;-1.796;2023-03-13T11:58:51;98685.03;;;12.18;73.15
78411;BME280;67706;51.074;-1.796;2023-03-13T12:01:25;98693.00;;;12.19;73.60
78411;BME280;67706;51.074;-1.796;2023-03-13T12:03:56;98691.28;;;12.13;73.75
78411;BME280;67706;51.074;-1.796;2023-03-13T12:06:25;98700.19;;;12.20;73.48
78411;BME280;67706;51.074;-1.796;2023-03-13T12:08:59;98678.69;;;12.17;73.05
78411;BME280;67706;51.074;-1.796;2023-03-13T12:11:32;98684.19;;;12.17;72.82
78411;BME280;67706;51.074;-1.796;2023-03-13T12:14:04;98693.06;;;12.24;71.56
78411;BME280;67706;51.074;-1.796;2023-03-13T12:16:40;98689.56;;;12.34;71.76
78411;BME280;67706;51.074;-1.796;2023-03-13T12:19:10;98688.19;;;12.31;72.05
78411;BME280;67706;51.074;-1.796;2023-03-13T12:21:41;98685.88;;;12.18;71.95
78411;BME280;67706;51.074;-1.796;2023-03-13T12:24:18;98678.41;;;12.14;72.58
78411;BME280;67706;51.074;-1.796;2023-03-13T12:26:51;98690.53;;;12.18;72.46
78411;BME280;67706;51.074;-1.796;2023-03-13T12:29:36;98682.47;;;12.11;72.38
78411;BME280;67706;51.074;-1.796;2023-03-13T12:32:11;98685.88;;;12.23;72.61
78411;BME280;67706;51.074;-1.796;2023-03-13T12:34:45;98691.28;;;12.08;73.57
78411;BME280;67706;51.074;-1.796;2023-03-13T12:37:22;98682.31;;;11.96;73.83
78411;BME280;67706;51.074;-1.796;2023-03-13T12:39:55;98684.50;;;11.94;74.32
78411;BME280;67706;51.074;-1.796;2023-03-13T12:42:37;98696.53;;;11.88;74.54
78411;BME280;67706;51.074;-1.796;2023-03-13T12:45:06;98692.53;;;11.74;74.58
78411;BME280;67706;51.074;-1.796;2023-03-13T12:47:45;98689.28;;;11.77;75.53
78411;BME280;67706;51.074;-1.796;2023-03-13T12:50:31;98679.47;;;11.86;75.08
78411;BME280;67706;51.074;-1.796;2023-03-13T12:53:17;98685.53;;;11.88;75.06
78411;BME280;67706;51.074;-1.796;2023-03-13T12:55:57;98679.34;;;11.98;75.01
78411;BME280;67706;51.074;-1.796;2023-03-13T12:58:41;98670.75;;;11.94;75.71
78411;BME280;67706;51.074;-1.796;2023-03-13T13:01:14;98663.75;;;11.81;75.91